EDAH Airport Information

Runway Information
Runway 10 Length 7562 ft width 115 ft
Elevation 77 ft Threshold 0 ft Heading 106
Runway 28 Length 7562 ft Width 115 ft
Elevation 89 ft Threshold 0 ft Heading 286
Runway 10R Length 1969 ft width 98 ft
Elevation 0 ft Threshold 0 ft Heading 106
Runway 28L Length 1969 ft Width 98 ft
Elevation 0 ft Threshold 0 ft Heading 286
Airport Frequencies
Type AFIS Name BERLIN INF Frequency 132.65 MHZ
Type INFO Name INFO Frequency 132.825 MHZ
Type TWR Name TWR Frequency 132.825 MHZ
Airport Navaids
Type NDB Name Heringsdorf Frequency 330 KHZ
Airport Weather Information & NOTAM
ADDS - METARS form results

(0801 UTC 25 April 2019)
Data provider http://aviationweather.gov/metar/data/
 
METAR text: EDAH 250750Z 20007KT 170V230 CAVOK 15/12 Q1011
Conditions at: EDAH (HERINGSDORF , DE) observed 0750 UTC 25 April 2019
Temperature: 15.0°C (59°F)
Dewpoint: 12.0°C (54°F) [RH = 82%]
Pressure (altimeter): 29.85 inches Hg (1011.0 mb)
Winds: from the SSW (200 degrees) at 8 MPH (7 knots; 3.6 m/s)
Visibility: 6 or more miles (10+ km)
Ceiling: ceiling and visibility are OK
Clouds: unknown
Weather: no significant weather observed at this time

METAR text: EDAH 250720Z 21005KT 9999 FEW038 13/11 Q1011
Conditions at: EDAH (HERINGSDORF , DE) observed 0720 UTC 25 April 2019
Temperature: 13.0°C (55°F)
Dewpoint: 11.0°C (52°F) [RH = 88%]
Pressure (altimeter): 29.85 inches Hg (1011.0 mb)
Winds: from the SSW (210 degrees) at 6 MPH (5 knots; 2.6 m/s)
Visibility: 6 or more miles (10+ km)
Ceiling: at least 12,000 feet AGL
Clouds: few clouds at 3800 feet AGL
Weather: no significant weather observed at this time

Forecast for: EDAH (HERINGSDORF , DE)
Text: TAF EDAH 250735Z 2508/2515 23005KT CAVOK
Forecast period: 0800 to 1200 UTC 25 April 2019
Forecast type: FROM: standard forecast or significant change
Winds: from the SW (230 degrees) at 6 MPH (5 knots; 2.6 m/s)
Visibility: 6 or more miles 10+ km)
Ceiling: unknown
Clouds: missing
Weather: NSW  (no significant weather)
Text: BECMG 2512/2515 VRB03KT
Forecast period: 1200 to 1500 UTC 25 April 2019
Forecast type: BECOMING: Conditions expected to become as follows by 1500 UTC 25 April 2019
Winds: variable direction winds at 3 MPH (3 knots; 1.5 m/s)
Visibility: 6 or more miles 10+ km)
Ceiling: unknown
Clouds: missing
Weather: NSW  (no significant weather)